createdAt,value
2023-05-11T00:00:20.624Z,12.25
2023-05-11T00:05:19.573Z,12.15
2023-05-11T00:10:18.592Z,12.04
2023-05-11T00:15:18.992Z,11.99
2023-05-11T00:20:18.203Z,11.88
2023-05-11T00:25:17.359Z,11.81
2023-05-11T00:30:16.810Z,11.61
2023-05-11T00:35:17.384Z,11.43
2023-05-11T00:40:16.374Z,11.52
2023-05-11T00:45:15.281Z,11.43
2023-05-11T00:50:13.992Z,11.45
2023-05-11T00:55:15.020Z,11.45
2023-05-11T01:00:14.779Z,11.53
2023-05-11T01:05:13.573Z,11.44
2023-05-11T01:10:19.292Z,11.21
2023-05-11T01:15:26.208Z,11.24
2023-05-11T01:20:28.486Z,11.32
2023-05-11T01:25:50.520Z,11.38
2023-05-11T01:30:53.296Z,11.46
2023-05-11T01:35:55.923Z,11.60
2023-05-11T01:40:57.822Z,11.63
2023-05-11T01:46:02.550Z,11.66
2023-05-11T01:51:03.792Z,11.64
2023-05-11T01:56:03.717Z,11.60
2023-05-11T02:01:04.913Z,11.66
2023-05-11T02:06:06.146Z,11.64
2023-05-11T02:11:08.547Z,11.63
2023-05-11T02:16:11.619Z,11.62
2023-05-11T02:21:11.201Z,11.62
2023-05-11T02:26:12.281Z,11.43
2023-05-11T02:31:17.857Z,11.26
2023-05-11T02:36:20.600Z,11.08
2023-05-11T02:41:23.059Z,10.88
2023-05-11T02:46:30.981Z,10.83
2023-05-11T02:51:33.669Z,10.90
2023-05-11T02:56:32.830Z,10.83
2023-05-11T03:01:33.894Z,10.72
2023-05-11T03:06:33.408Z,10.76
2023-05-11T03:11:34.395Z,10.76
2023-05-11T03:16:36.375Z,10.65
2023-05-11T03:21:39.537Z,10.61
2023-05-11T03:26:39.026Z,10.45
2023-05-11T03:31:39.549Z,10.32
2023-05-11T03:36:41.014Z,10.34
2023-05-11T03:41:41.409Z,10.35
2023-05-11T03:46:47.955Z,10.37
2023-05-11T03:51:47.544Z,10.38
2023-05-11T03:56:46.584Z,10.34
2023-05-11T04:01:47.194Z,10.41
2023-05-11T04:06:46.336Z,10.35
2023-05-11T04:11:49.165Z,10.48
2023-05-11T04:16:49.593Z,10.62
2023-05-11T04:21:49.082Z,10.60
2023-05-11T04:26:48.129Z,10.63
2023-05-11T04:31:46.952Z,10.83
2023-05-11T04:36:49.848Z,10.91
2023-05-11T04:41:49.730Z,10.94
2023-05-11T04:46:48.823Z,10.98
2023-05-11T04:51:49.265Z,11.10
2023-05-11T04:56:48.236Z,11.08
2023-05-11T05:01:47.003Z,11.21
2023-05-11T05:06:45.802Z,11.33
2023-05-11T05:11:48.781Z,11.45
2023-05-11T05:16:47.617Z,11.55
2023-05-11T05:21:48.310Z,11.66
2023-05-11T05:26:48.774Z,11.75
2023-05-11T05:31:48.503Z,11.78
2023-05-11T05:36:48.214Z,11.83
2023-05-11T05:41:48.687Z,11.98
2023-05-11T05:46:48.131Z,11.99
2023-05-11T05:51:47.370Z,12.12
2023-05-11T05:56:46.420Z,12.25
2023-05-11T06:01:47.569Z,12.57
2023-05-11T06:06:47.692Z,12.68
2023-05-11T06:11:46.818Z,12.86
2023-05-11T06:16:47.060Z,12.85
2023-05-11T06:21:46.242Z,13.13
2023-05-11T06:26:46.099Z,13.18
2023-05-11T06:31:49.617Z,13.24
2023-05-11T06:36:48.648Z,13.27
2023-05-11T06:41:47.721Z,13.27
2023-05-11T06:46:50.004Z,13.40
2023-05-11T06:51:48.923Z,13.53
2023-05-11T06:56:47.641Z,13.84
2023-05-11T07:01:47.925Z,14.00
2023-05-11T07:06:46.647Z,14.11
2023-05-11T07:11:45.443Z,14.38
2023-05-11T07:16:44.804Z,14.71
2023-05-11T07:21:45.201Z,15.21
2023-05-11T07:26:44.154Z,15.22
2023-05-11T07:31:43.337Z,15.19
2023-05-11T07:36:42.234Z,15.38
2023-05-11T07:41:42.486Z,15.64
2023-05-11T07:46:41.318Z,15.59
2023-05-11T07:51:40.214Z,15.57
2023-05-11T07:56:39.008Z,15.55
2023-05-11T08:01:39.239Z,15.73
2023-05-11T08:06:38.617Z,15.92
2023-05-11T08:11:37.515Z,16.04
2023-05-11T08:16:37.240Z,16.40
2023-05-11T08:21:37.516Z,16.75
2023-05-11T08:26:36.364Z,17.25
2023-05-11T08:31:35.225Z,17.49
2023-05-11T08:36:34.052Z,18.13
2023-05-11T08:41:34.290Z,18.70
2023-05-11T08:46:36.734Z,19.78
2023-05-11T08:51:37.849Z,21.09
2023-05-11T08:56:38.801Z,21.57
2023-05-11T09:01:38.406Z,23.65
2023-05-11T09:06:39.723Z,24.58
2023-05-11T09:11:40.686Z,25.69
2023-05-11T09:16:39.418Z,25.50
2023-05-11T09:21:41.056Z,26.06
2023-05-11T09:26:41.481Z,26.12
2023-05-11T09:31:42.002Z,26.32
2023-05-11T09:36:41.016Z,26.86
2023-05-11T09:41:41.162Z,26.98
2023-05-11T09:46:42.059Z,27.60
2023-05-11T09:51:42.491Z,26.62
2023-05-11T09:56:47.654Z,26.99
2023-05-11T10:01:46.327Z,26.95
2023-05-11T10:06:47.098Z,26.88
2023-05-11T10:11:48.071Z,26.89
2023-05-11T10:16:48.715Z,27.94
2023-05-11T10:21:47.876Z,28.69
2023-05-11T10:26:48.567Z,27.88
2023-05-11T10:31:49.250Z,28.04
2023-05-11T10:36:49.007Z,28.24
2023-05-11T10:42:01.986Z,28.19
2023-05-11T10:47:15.943Z,28.49
2023-05-11T10:52:36.497Z,27.09
2023-05-11T10:57:53.751Z,27.14
2023-05-11T11:02:52.563Z,27.70
2023-05-11T11:08:04.263Z,28.03
2023-05-11T11:13:09.062Z,28.63
2023-05-11T11:18:24.456Z,29.23
2023-05-11T11:23:50.479Z,29.25
2023-05-11T11:29:15.484Z,28.81
2023-05-11T11:34:33.897Z,29.12
2023-05-11T11:39:53.580Z,28.99
2023-05-11T11:44:54.292Z,27.83
2023-05-11T11:49:54.705Z,29.11
2023-05-11T11:54:54.196Z,28.96
2023-05-11T11:59:55.145Z,28.60
2023-05-11T12:04:58.766Z,29.74
2023-05-11T12:09:57.726Z,30.24
2023-05-11T12:14:59.955Z,29.58
2023-05-11T12:20:13.990Z,29.59
2023-05-11T12:25:17.610Z,29.90
2023-05-11T12:30:25.275Z,30.03
2023-05-11T12:35:25.796Z,29.85
2023-05-11T12:40:24.583Z,29.40
2023-05-11T12:45:25.834Z,29.17
2023-05-11T12:50:29.096Z,29.18
2023-05-11T12:55:29.667Z,28.68
2023-05-11T13:00:30.656Z,28.71
2023-05-11T13:05:30.152Z,29.34
2023-05-11T13:10:29.908Z,29.58
2023-05-11T13:15:30.848Z,30.37
2023-05-11T13:20:31.494Z,29.81
2023-05-11T13:25:32.544Z,30.26
2023-05-11T13:30:34.730Z,30.52
2023-05-11T13:35:35.380Z,29.34
2023-05-11T13:40:35.375Z,29.44
2023-05-11T13:45:36.579Z,28.93
2023-05-11T13:50:38.971Z,28.37
2023-05-11T13:55:39.371Z,26.88
2023-05-11T14:00:40.466Z,26.74
2023-05-11T14:05:41.404Z,26.46
2023-05-11T14:10:40.071Z,25.96
2023-05-11T14:15:40.063Z,25.52
2023-05-11T14:20:38.891Z,25.86
2023-05-11T14:25:37.644Z,26.01
2023-05-11T14:30:36.941Z,25.55
2023-05-11T14:35:39.619Z,25.86
2023-05-11T14:40:39.479Z,25.93
2023-05-11T14:45:38.610Z,25.71
2023-05-11T14:50:39.026Z,25.35
2023-05-11T14:55:38.092Z,25.15
2023-05-11T15:00:40.238Z,25.50
2023-05-11T15:05:40.680Z,25.75
2023-05-11T15:10:41.131Z,25.56
2023-05-11T15:15:39.846Z,25.13
2023-05-11T15:20:42.599Z,24.91
2023-05-11T15:25:41.368Z,24.46
2023-05-11T15:30:41.543Z,24.63
2023-05-11T15:35:41.783Z,24.53
2023-05-11T15:40:40.737Z,24.05
2023-05-11T15:45:39.436Z,23.93
2023-05-11T15:50:38.172Z,23.89
2023-05-11T15:55:39.479Z,23.67
2023-05-11T16:00:38.198Z,23.21
2023-05-11T16:05:37.240Z,23.09
2023-05-11T16:10:36.432Z,22.80
2023-05-11T16:15:36.520Z,22.96
2023-05-11T16:20:39.034Z,22.45
2023-05-11T16:25:37.892Z,22.56
2023-05-11T16:30:38.077Z,22.64
2023-05-11T16:35:39.788Z,21.84
2023-05-11T16:40:38.609Z,20.82
2023-05-11T16:45:39.129Z,21.01
2023-05-11T16:50:38.786Z,20.75
2023-05-11T16:55:40.672Z,20.53
2023-05-11T17:00:41.126Z,20.31
2023-05-11T17:11:41.203Z,19.53
2023-05-11T17:16:43.020Z,19.16
2023-05-11T17:21:41.787Z,18.95
2023-05-11T17:26:48.029Z,18.71
2023-05-11T17:31:51.631Z,18.46
2023-05-11T17:36:51.468Z,18.23
2023-05-11T17:41:50.618Z,18.22
2023-05-11T17:46:54.252Z,17.92
2023-05-11T17:51:53.826Z,17.69
2023-05-11T17:56:53.510Z,17.47
2023-05-11T18:01:54.087Z,17.35
2023-05-11T18:06:55.919Z,17.26
2023-05-11T18:11:54.591Z,16.94
2023-05-11T18:16:55.466Z,16.59
2023-05-11T18:21:54.290Z,16.35
2023-05-11T18:26:52.949Z,16.21
2023-05-11T18:31:52.778Z,16.13
2023-05-11T18:36:52.997Z,16.17
2023-05-11T18:41:51.732Z,16.06
2023-05-11T18:46:50.498Z,15.79
2023-05-11T18:51:50.150Z,15.71
2023-05-11T18:56:50.325Z,15.62
2023-05-11T19:01:51.641Z,15.45
2023-05-11T19:06:50.686Z,15.56
2023-05-11T19:11:51.291Z,15.40
2023-05-11T19:16:51.465Z,15.34
2023-05-11T19:21:51.525Z,15.36
2023-05-11T19:27:05.373Z,15.01
2023-05-11T19:32:08.137Z,14.88
2023-05-11T19:37:07.370Z,14.69
2023-05-11T19:42:07.840Z,14.68
2023-05-11T19:47:07.185Z,14.55
2023-05-11T19:52:06.998Z,14.36
2023-05-11T19:57:07.300Z,14.39
2023-05-11T20:02:06.518Z,14.13
2023-05-11T20:07:06.241Z,14.48
2023-05-11T20:12:05.330Z,14.37
2023-05-11T20:17:07.328Z,14.25
2023-05-11T20:22:06.547Z,14.21
2023-05-11T20:27:10.065Z,14.08
2023-05-11T20:32:10.569Z,13.94
2023-05-11T20:37:09.539Z,13.86
2023-05-11T20:42:08.860Z,13.85
2023-05-11T20:47:08.296Z,13.90
2023-05-11T20:52:09.266Z,13.96
2023-05-11T20:57:09.800Z,13.90
2023-05-11T21:02:10.685Z,13.91
2023-05-11T21:07:10.787Z,14.08
2023-05-11T21:12:09.722Z,13.99
2023-05-11T21:17:08.468Z,14.04
2023-05-11T21:22:07.193Z,13.93
2023-05-11T21:27:07.726Z,13.78
2023-05-11T21:32:06.979Z,13.80
2023-05-11T21:37:06.470Z,13.80
2023-05-11T21:42:36.271Z,13.76
2023-05-11T21:47:37.081Z,13.64
2023-05-11T21:52:35.749Z,13.64
2023-05-11T21:57:35.885Z,13.51
2023-05-11T22:02:34.694Z,13.47
2023-05-11T22:07:33.686Z,13.37
2023-05-11T22:12:32.827Z,13.30
2023-05-11T22:17:32.944Z,13.31
2023-05-11T22:22:32.146Z,13.13
2023-05-11T22:27:31.186Z,13.17
2023-05-11T22:32:29.848Z,13.04
2023-05-11T22:37:29.908Z,13.08
2023-05-11T22:42:30.791Z,13.00
2023-05-11T22:47:29.662Z,12.92
2023-05-11T22:52:30.010Z,12.95
2023-05-11T22:57:29.286Z,12.81
2023-05-11T23:02:29.701Z,12.65
2023-05-11T23:07:29.870Z,12.54
2023-05-11T23:12:28.559Z,12.67
2023-05-11T23:17:27.275Z,12.66
2023-05-11T23:22:25.948Z,12.68
2023-05-11T23:27:26.083Z,12.64
2023-05-11T23:32:24.780Z,12.62
2023-05-11T23:37:23.613Z,12.63
2023-05-11T23:42:22.538Z,12.63
2023-05-11T23:47:23.589Z,12.41
2023-05-11T23:52:22.447Z,12.31
2023-05-11T23:57:21.060Z,12.30
